This is the latest recevied weather packets stored in our database for station/object EA2CW-13. If no packets are shown the sender has not sent any weather packets the latest 10 day(s).
| Time | Temp. | Humidity | Pressure | Rain* | Wind** | Luminosity | Snow |
|---|---|---|---|---|---|---|---|
| 1778098932 | 15° C | 77% | 1051.6 hPa | - | - | 0 W/m² | - |
| 1778097996 | 15° C | 75% | 1051.5 hPa | - | - | 0 W/m² | - |
| 1778097060 | 15.56° C | 73% | 1051.3 hPa | - | - | 0 W/m² | - |
| 1778096125 | 16.11° C | 70% | 1051.2 hPa | - | - | 0 W/m² | - |
| 1778095188 | 16.67° C | 66% | 1051 hPa | - | - | 1 W/m² | - |
| 1778094253 | 17.78° C | 62% | 1050.9 hPa | - | - | 3 W/m² | - |
| 1778093316 | 20° C | 57% | 1050.8 hPa | - | - | 9 W/m² | - |
| 1778092381 | 21.67° C | 57% | 1050.8 hPa | - | - | 27 W/m² | - |
| 1778091445 | 22.22° C | 60% | 1050.8 hPa | - | - | 38 W/m² | - |
| 1778090509 | 21.11° C | 66% | 1050.9 hPa | - | - | 42 W/m² | - |
| 1778089573 | 19.44° C | 64% | 1050.9 hPa | - | - | 18 W/m² | - |
| 1778088637 | 19.44° C | 65% | 1050.9 hPa | - | - | 22 W/m² | - |
| 1778087701 | 20° C | 64% | 1051.1 hPa | - | - | 26 W/m² | - |
| 1778086765 | 20.56° C | 67% | 1051.1 hPa | - | - | 40 W/m² | - |
| 1778085829 | 22.22° C | 73% | 1051 hPa | - | - | 76 W/m² | - |
| 1778084893 | 20.56° C | 76% | 1051.2 hPa | - | - | 45 W/m² | - |
| 1778083957 | 18.33° C | 80% | 1051.5 hPa | - | - | 35 W/m² | - |
| 1778083021 | 18.33° C | 82% | 1051.5 hPa | - | - | 41 W/m² | - |
| 1778082085 | 17.22° C | 84% | 1051.6 hPa | - | - | 30 W/m² | - |
| 1778081149 | 16.67° C | 84% | 1051.7 hPa | - | - | 27 W/m² | - |
| 1778080213 | 15.56° C | 81% | 1051.9 hPa | - | - | 21 W/m² | - |
| 1778078341 | 16.11° C | 75% | 1051.9 hPa | - | - | 26 W/m² | - |
| 1778077405 | 16.67° C | 67% | 1052 hPa | - | - | 13 W/m² | - |
| 1778076469 | 17.22° C | 62% | 1051.9 hPa | - | - | 7 W/m² | - |
| 1778075533 | 18.89° C | 53% | 1051.9 hPa | - | - | 25 W/m² | - |
* Rain since midnight (hover to see other rain measurements)
** Current wind speed in m/s (hover to see current wind gust speed)